createdAt,value
2017-06-06T00:00:19.814Z,0
2017-06-06T00:01:00.367Z,0
2017-06-06T00:01:41.037Z,0
2017-06-06T00:02:21.666Z,0
2017-06-06T00:03:02.232Z,0
2017-06-06T00:03:42.887Z,0
2017-06-06T00:04:23.472Z,0
2017-06-06T00:05:04.070Z,0
2017-06-06T00:05:45.737Z,0
2017-06-06T00:06:26.338Z,0
2017-06-06T00:07:06.871Z,0
2017-06-06T00:07:47.514Z,0
2017-06-06T00:08:28.205Z,0
2017-06-06T00:09:08.764Z,0
2017-06-06T00:09:49.477Z,0
2017-06-06T00:10:30.172Z,0
2017-06-06T00:11:10.836Z,0
2017-06-06T00:11:51.463Z,0
2017-06-06T00:12:32.159Z,0
2017-06-06T00:13:12.775Z,0
2017-06-06T00:13:53.323Z,0
2017-06-06T00:14:33.841Z,0
2017-06-06T00:15:14.429Z,0
2017-06-06T00:15:55.016Z,0
2017-06-06T00:16:35.619Z,0
2017-06-06T00:17:16.151Z,0
2017-06-06T00:17:56.788Z,0
2017-06-06T00:18:37.438Z,0
2017-06-06T00:19:18.026Z,0
2017-06-06T00:19:58.571Z,0
2017-06-06T00:20:39.164Z,0
2017-06-06T00:21:19.742Z,0
2017-06-06T00:22:00.334Z,0
2017-06-06T00:22:41.132Z,0
2017-06-06T00:23:21.774Z,0
2017-06-06T00:24:02.352Z,0
2017-06-06T00:24:42.953Z,0
2017-06-06T00:25:23.498Z,0
2017-06-06T00:26:04.062Z,0
2017-06-06T00:26:44.709Z,0
2017-06-06T00:27:25.275Z,0
2017-06-06T00:28:05.834Z,0
2017-06-06T00:28:46.450Z,0
2017-06-06T00:29:27.125Z,0
2017-06-06T00:30:07.770Z,0
2017-06-06T00:30:48.316Z,0
2017-06-06T00:31:28.919Z,0
2017-06-06T00:32:09.470Z,0
2017-06-06T00:32:50.027Z,0
2017-06-06T00:33:30.709Z,0
2017-06-06T00:34:11.328Z,0
2017-06-06T00:34:53.908Z,0
2017-06-06T00:35:34.448Z,0
2017-06-06T00:36:15.091Z,0
2017-06-06T00:36:55.681Z,0
2017-06-06T00:37:36.272Z,0
2017-06-06T00:38:16.820Z,0
2017-06-06T00:38:58.406Z,0
2017-06-06T00:39:41.633Z,0
2017-06-06T00:40:22.292Z,0
2017-06-06T00:41:02.818Z,0
2017-06-06T00:41:43.383Z,0
2017-06-06T00:42:24.082Z,0
2017-06-06T00:43:04.677Z,0
2017-06-06T00:43:45.212Z,0
2017-06-06T00:44:25.897Z,0
2017-06-06T00:45:06.537Z,0
2017-06-06T00:45:47.081Z,0
2017-06-06T00:46:27.636Z,0
2017-06-06T00:47:08.184Z,0
2017-06-06T00:47:48.787Z,0
2017-06-06T00:48:30.428Z,0
2017-06-06T00:49:11.079Z,0
2017-06-06T00:49:51.639Z,0
2017-06-06T00:50:32.262Z,0
2017-06-06T00:51:12.892Z,0
2017-06-06T00:51:53.486Z,0
2017-06-06T00:52:34.045Z,0
2017-06-06T00:53:14.580Z,0
2017-06-06T00:53:55.190Z,0
2017-06-06T00:54:35.821Z,0
2017-06-06T00:55:16.437Z,0
2017-06-06T00:55:57.098Z,0
2017-06-06T00:56:37.747Z,0
2017-06-06T00:57:18.393Z,0
2017-06-06T00:57:58.950Z,0
2017-06-06T00:58:39.503Z,0
2017-06-06T00:59:20.144Z,0
2017-06-06T01:00:00.704Z,0
2017-06-06T01:00:41.349Z,0
2017-06-06T01:01:21.896Z,0
2017-06-06T01:02:02.453Z,0
2017-06-06T01:02:44.028Z,0
2017-06-06T01:03:26.324Z,0
2017-06-06T01:04:06.969Z,0
2017-06-06T01:04:47.520Z,0
2017-06-06T01:05:28.088Z,0
2017-06-06T01:06:08.748Z,0
2017-06-06T01:06:49.378Z,0
2017-06-06T01:07:30.029Z,0
2017-06-06T01:08:10.678Z,0
2017-06-06T01:08:51.232Z,0
2017-06-06T01:09:31.787Z,0
2017-06-06T01:10:12.336Z,0
2017-06-06T01:10:52.886Z,0
2017-06-06T01:11:34.456Z,0
2017-06-06T01:12:15.009Z,0
2017-06-06T01:12:55.568Z,0
2017-06-06T01:13:36.218Z,0
2017-06-06T01:14:16.773Z,0
2017-06-06T01:14:57.342Z,0
2017-06-06T01:15:37.946Z,0
2017-06-06T01:16:18.496Z,0
2017-06-06T01:16:59.137Z,0
2017-06-06T01:17:39.696Z,0
2017-06-06T01:18:20.355Z,0
2017-06-06T01:19:00.898Z,0
2017-06-06T01:19:41.411Z,0
2017-06-06T01:20:22.026Z,0
2017-06-06T01:21:02.666Z,0
2017-06-06T01:21:43.298Z,0
2017-06-06T01:22:23.851Z,0
2017-06-06T01:23:04.423Z,0
2017-06-06T01:23:45.019Z,0
2017-06-06T01:24:25.606Z,0
2017-06-06T01:25:06.176Z,0
2017-06-06T01:25:47.737Z,0
2017-06-06T01:26:29.312Z,0
2017-06-06T01:27:09.866Z,0
2017-06-06T01:27:50.413Z,0
2017-06-06T01:28:31.069Z,0
2017-06-06T01:29:11.610Z,0
2017-06-06T01:29:52.143Z,0
2017-06-06T01:30:32.808Z,0
2017-06-06T01:31:13.385Z,0
2017-06-06T01:31:53.894Z,0
2017-06-06T01:32:34.545Z,0
2017-06-06T01:33:15.136Z,0
2017-06-06T01:33:55.674Z,0
2017-06-06T01:34:36.307Z,0
2017-06-06T01:35:16.897Z,0
2017-06-06T01:35:58.454Z,0
2017-06-06T01:36:39.106Z,0
2017-06-06T01:37:19.654Z,0
2017-06-06T01:38:00.248Z,0
2017-06-06T01:38:40.861Z,0
2017-06-06T01:39:21.405Z,0
2017-06-06T01:40:02.029Z,0
2017-06-06T01:40:42.617Z,0
2017-06-06T01:41:23.147Z,0
2017-06-06T01:42:03.793Z,0
2017-06-06T01:42:44.381Z,0
2017-06-06T01:43:24.917Z,0
2017-06-06T01:44:05.543Z,0
2017-06-06T01:44:46.142Z,0
2017-06-06T01:45:26.739Z,0
2017-06-06T01:46:07.363Z,0
2017-06-06T01:46:47.944Z,0
2017-06-06T01:47:28.533Z,0
2017-06-06T01:48:09.061Z,0
2017-06-06T01:48:49.680Z,0
2017-06-06T01:49:30.249Z,0
2017-06-06T01:50:10.838Z,0
2017-06-06T01:50:51.398Z,0
2017-06-06T01:51:32.988Z,0
2017-06-06T01:52:13.588Z,0
2017-06-06T01:52:54.267Z,0
2017-06-06T01:53:34.877Z,0
2017-06-06T01:54:15.510Z,0
2017-06-06T01:54:56.100Z,0
2017-06-06T01:55:36.671Z,0
2017-06-06T01:56:17.224Z,0
2017-06-06T01:56:57.769Z,0
2017-06-06T01:57:38.322Z,0
2017-06-06T01:58:18.887Z,0
2017-06-06T01:58:59.529Z,0
2017-06-06T01:59:40.080Z,0
2017-06-06T02:00:20.705Z,0
2017-06-06T02:01:01.284Z,0
2017-06-06T02:01:41.819Z,0
2017-06-06T02:02:22.461Z,0
2017-06-06T02:03:03.047Z,0
2017-06-06T02:03:43.664Z,0
2017-06-06T02:04:24.316Z,0
2017-06-06T02:05:04.899Z,0
2017-06-06T02:05:45.419Z,0
2017-06-06T02:06:26.063Z,0
2017-06-06T02:07:07.676Z,0
2017-06-06T02:07:48.288Z,0
2017-06-06T02:08:29.782Z,0
2017-06-06T02:09:10.373Z,0
2017-06-06T02:09:50.909Z,0
2017-06-06T02:10:31.518Z,0
2017-06-06T02:11:12.103Z,0
2017-06-06T02:11:52.624Z,0
2017-06-06T02:12:33.252Z,0
2017-06-06T02:13:13.776Z,0
2017-06-06T02:13:54.354Z,0
2017-06-06T02:14:34.916Z,0
2017-06-06T02:15:15.470Z,0
2017-06-06T02:15:56.010Z,0
2017-06-06T02:16:36.564Z,0
2017-06-06T02:17:17.114Z,0
2017-06-06T02:17:57.715Z,0
2017-06-06T02:18:38.326Z,0
2017-06-06T02:19:18.978Z,0
2017-06-06T02:19:59.532Z,0
2017-06-06T02:20:40.092Z,0
2017-06-06T02:21:20.730Z,0
2017-06-06T02:22:01.281Z,0
2017-06-06T02:22:42.853Z,0
2017-06-06T02:23:23.423Z,0
2017-06-06T02:24:04.073Z,0
2017-06-06T02:24:45.633Z,0
2017-06-06T02:25:26.219Z,0
2017-06-06T02:26:06.747Z,0
2017-06-06T02:26:47.385Z,0
2017-06-06T02:27:28.947Z,0
2017-06-06T02:28:09.536Z,0
2017-06-06T02:28:50.078Z,0
2017-06-06T02:29:30.653Z,0
2017-06-06T02:30:12.290Z,0
2017-06-06T02:30:52.895Z,0
2017-06-06T02:31:33.437Z,0
2017-06-06T02:32:14.105Z,0
2017-06-06T02:32:54.699Z,0
2017-06-06T02:33:35.278Z,0
2017-06-06T02:34:15.815Z,0
2017-06-06T02:34:56.402Z,0
2017-06-06T02:35:37.043Z,0
2017-06-06T02:36:17.612Z,0
2017-06-06T02:36:58.235Z,0
2017-06-06T02:37:38.862Z,0
2017-06-06T02:38:19.515Z,0
2017-06-06T02:39:00.169Z,0
2017-06-06T02:39:40.790Z,0
2017-06-06T02:40:21.363Z,0
2017-06-06T02:41:01.938Z,0
2017-06-06T02:41:42.465Z,0
2017-06-06T02:42:24.091Z,0
2017-06-06T02:43:04.700Z,0
2017-06-06T02:43:45.270Z,0
2017-06-06T02:44:25.851Z,0
2017-06-06T02:45:06.428Z,0
2017-06-06T02:45:47.040Z,0
2017-06-06T02:46:27.560Z,0
2017-06-06T02:47:09.117Z,0
2017-06-06T02:47:49.708Z,0
2017-06-06T02:48:30.244Z,4
2017-06-06T02:49:10.853Z,4
2017-06-06T02:49:52.481Z,0
2017-06-06T02:50:33.049Z,0
2017-06-06T02:51:14.697Z,0
2017-06-06T02:51:55.356Z,4
2017-06-06T02:52:35.872Z,4
2017-06-06T02:53:16.430Z,0
2017-06-06T02:53:57.014Z,4
2017-06-06T02:54:37.593Z,0
2017-06-06T02:55:19.214Z,4
2017-06-06T02:55:59.801Z,0
2017-06-06T02:56:40.352Z,4
2017-06-06T02:57:20.896Z,4
2017-06-06T02:58:01.446Z,4
2017-06-06T02:58:41.994Z,4
2017-06-06T02:59:22.542Z,4
2017-06-06T03:00:03.084Z,4
2017-06-06T03:00:44.727Z,4
2017-06-06T03:01:25.276Z,4
2017-06-06T03:02:05.884Z,8
2017-06-06T03:02:46.420Z,8
2017-06-06T03:03:26.999Z,4
2017-06-06T03:04:07.573Z,8
2017-06-06T03:04:48.201Z,8
2017-06-06T03:05:28.730Z,8
2017-06-06T03:06:09.399Z,8
2017-06-06T03:06:50.050Z,8
2017-06-06T03:07:30.575Z,8
2017-06-06T03:08:11.191Z,8
2017-06-06T03:08:51.808Z,12
2017-06-06T03:09:32.354Z,8
2017-06-06T03:10:12.950Z,12
2017-06-06T03:10:53.495Z,8
2017-06-06T03:11:34.045Z,8
2017-06-06T03:12:14.593Z,8
2017-06-06T03:12:55.167Z,12
2017-06-06T03:13:35.827Z,16
2017-06-06T03:14:16.357Z,12
2017-06-06T03:14:56.947Z,12
2017-06-06T03:15:37.527Z,12
2017-06-06T03:16:18.056Z,12
2017-06-06T03:16:58.676Z,12
2017-06-06T03:17:39.249Z,16
2017-06-06T03:18:19.776Z,16
2017-06-06T03:19:00.355Z,16
2017-06-06T03:19:40.973Z,20
2017-06-06T03:20:21.521Z,16
2017-06-06T03:21:02.057Z,20
2017-06-06T03:21:42.605Z,20
2017-06-06T03:22:23.190Z,20
2017-06-06T03:23:03.715Z,24
2017-06-06T03:23:44.264Z,24
2017-06-06T03:24:24.827Z,24
2017-06-06T03:25:05.365Z,24
2017-06-06T03:25:45.927Z,28
2017-06-06T03:26:26.567Z,28
2017-06-06T03:27:07.138Z,28
2017-06-06T03:27:47.777Z,32
2017-06-06T03:28:28.324Z,32
2017-06-06T03:29:08.890Z,36
2017-06-06T03:29:49.526Z,36
2017-06-06T03:30:30.127Z,36
2017-06-06T03:31:10.678Z,40
2017-06-06T03:31:51.294Z,40
2017-06-06T03:32:32.908Z,40
2017-06-06T03:33:13.464Z,40
2017-06-06T03:33:54.117Z,40
2017-06-06T03:34:34.659Z,40
2017-06-06T03:35:15.169Z,40
2017-06-06T03:35:55.813Z,40
2017-06-06T03:36:36.436Z,40
2017-06-06T03:37:17.066Z,40
2017-06-06T03:37:57.665Z,36
2017-06-06T03:38:38.183Z,40
2017-06-06T03:39:18.782Z,40
2017-06-06T03:39:59.365Z,40
2017-06-06T03:40:41.054Z,40
2017-06-06T03:41:21.599Z,40
2017-06-06T03:42:02.140Z,40
2017-06-06T03:42:42.696Z,44
2017-06-06T03:43:24.287Z,40
2017-06-06T03:44:04.924Z,40
2017-06-06T03:44:45.473Z,40
2017-06-06T03:45:26.054Z,44
2017-06-06T03:46:06.691Z,44
2017-06-06T03:46:47.343Z,48
2017-06-06T03:47:27.898Z,48
2017-06-06T03:48:08.456Z,48
2017-06-06T03:48:49.057Z,48
2017-06-06T03:49:29.646Z,52
2017-06-06T03:50:10.166Z,56
2017-06-06T03:50:50.763Z,56
2017-06-06T03:51:31.342Z,64
2017-06-06T03:52:11.939Z,68
2017-06-06T03:52:52.468Z,72
2017-06-06T03:53:33.079Z,80
2017-06-06T03:54:13.663Z,84
2017-06-06T03:54:54.347Z,88
2017-06-06T03:55:34.875Z,100
2017-06-06T03:56:15.462Z,104
2017-06-06T03:56:56.065Z,116
2017-06-06T03:57:36.661Z,124
2017-06-06T03:58:17.190Z,140
2017-06-06T03:58:57.767Z,152
2017-06-06T03:59:38.392Z,172
2017-06-06T04:00:19.980Z,192
2017-06-06T04:01:00.517Z,212
2017-06-06T04:01:41.138Z,236
2017-06-06T04:02:21.754Z,256
2017-06-06T04:03:02.389Z,268
2017-06-06T04:03:42.993Z,276
2017-06-06T04:04:23.594Z,276
2017-06-06T04:05:04.120Z,276
2017-06-06T04:05:44.760Z,268
2017-06-06T04:06:26.629Z,260
2017-06-06T04:07:07.177Z,252
2017-06-06T04:07:47.730Z,240
2017-06-06T04:08:28.291Z,232
2017-06-06T04:09:08.829Z,224
2017-06-06T04:09:49.374Z,220
2017-06-06T04:10:29.945Z,216
2017-06-06T04:11:10.604Z,208
2017-06-06T04:11:52.166Z,204
2017-06-06T04:12:32.734Z,204
2017-06-06T04:13:13.245Z,200
2017-06-06T04:13:53.824Z,204
2017-06-06T04:14:34.374Z,200
2017-06-06T04:15:14.969Z,204
2017-06-06T04:15:55.515Z,208
2017-06-06T04:16:36.076Z,208
2017-06-06T04:17:16.716Z,212
2017-06-06T04:17:57.264Z,220
2017-06-06T04:18:37.848Z,228
2017-06-06T04:19:18.472Z,236
2017-06-06T04:19:59.030Z,248
2017-06-06T04:20:39.572Z,256
2017-06-06T04:21:20.143Z,264
2017-06-06T04:22:00.673Z,272
2017-06-06T04:22:41.231Z,284
2017-06-06T04:23:21.792Z,284
2017-06-06T04:24:02.278Z,292
2017-06-06T04:24:42.819Z,296
2017-06-06T04:25:23.414Z,300
2017-06-06T04:26:03.980Z,300
2017-06-06T04:26:44.504Z,300
2017-06-06T04:27:25.038Z,300
2017-06-06T04:28:05.631Z,300
2017-06-06T04:28:46.174Z,296
2017-06-06T04:29:26.795Z,300
2017-06-06T04:30:08.404Z,304
2017-06-06T04:30:48.945Z,316
2017-06-06T04:31:29.556Z,320
2017-06-06T04:32:10.165Z,320
2017-06-06T04:32:50.680Z,316
2017-06-06T04:33:31.230Z,308
2017-06-06T04:34:11.814Z,296
2017-06-06T04:34:52.348Z,292
2017-06-06T04:35:32.990Z,284
2017-06-06T04:36:13.528Z,276
2017-06-06T04:36:54.080Z,268
2017-06-06T04:37:34.662Z,260
2017-06-06T04:38:16.202Z,248
2017-06-06T04:38:56.753Z,232
2017-06-06T04:39:37.338Z,228
2017-06-06T04:40:17.957Z,232
2017-06-06T04:40:58.517Z,240
2017-06-06T04:41:39.166Z,244
2017-06-06T04:42:19.813Z,252
2017-06-06T04:43:00.363Z,256
2017-06-06T04:43:40.919Z,248
2017-06-06T04:44:21.463Z,256
2017-06-06T04:45:02.065Z,268
2017-06-06T04:45:42.591Z,268
2017-06-06T04:46:23.213Z,276
2017-06-06T04:47:03.812Z,288
2017-06-06T04:47:44.345Z,308
2017-06-06T04:48:25.002Z,328
2017-06-06T04:49:06.211Z,344
2017-06-06T04:49:46.765Z,344
2017-06-06T04:50:28.383Z,332
2017-06-06T04:51:08.940Z,316
2017-06-06T04:51:49.459Z,292
2017-06-06T04:52:31.035Z,280
2017-06-06T04:53:11.584Z,272
2017-06-06T04:53:52.134Z,264
2017-06-06T04:54:32.700Z,260
2017-06-06T04:55:13.389Z,264
2017-06-06T04:55:53.995Z,260
2017-06-06T04:56:34.537Z,264
2017-06-06T04:57:15.100Z,268
2017-06-06T04:57:55.643Z,264
2017-06-06T04:58:36.193Z,256
2017-06-06T04:59:16.871Z,252
2017-06-06T04:59:57.393Z,260
2017-06-06T05:00:37.985Z,268
2017-06-06T05:01:18.631Z,292
2017-06-06T05:01:59.186Z,308
2017-06-06T05:02:39.828Z,316
2017-06-06T05:03:20.373Z,324
2017-06-06T05:04:01.013Z,324
2017-06-06T05:04:41.678Z,320
2017-06-06T05:05:22.269Z,312
2017-06-06T05:06:02.804Z,312
2017-06-06T05:06:43.389Z,320
2017-06-06T05:07:23.981Z,336
2017-06-06T05:08:05.606Z,360
2017-06-06T05:08:46.132Z,392
2017-06-06T05:09:26.715Z,420
2017-06-06T05:10:07.294Z,436
2017-06-06T05:10:48.907Z,448
2017-06-06T05:11:29.529Z,476
2017-06-06T05:12:10.091Z,516
2017-06-06T05:12:50.650Z,572
2017-06-06T05:13:31.276Z,608
2017-06-06T05:14:11.835Z,620
2017-06-06T05:14:52.367Z,620
2017-06-06T05:15:32.987Z,608
2017-06-06T05:16:13.511Z,600
2017-06-06T05:16:54.087Z,592
2017-06-06T05:17:34.698Z,584
2017-06-06T05:18:15.289Z,584
2017-06-06T05:18:55.833Z,580
2017-06-06T05:19:36.431Z,580
2017-06-06T05:20:17.039Z,568
2017-06-06T05:20:57.563Z,600
2017-06-06T05:21:38.215Z,592
2017-06-06T05:22:18.798Z,564
2017-06-06T05:22:59.370Z,580
2017-06-06T05:23:39.964Z,608
2017-06-06T05:24:20.556Z,648
2017-06-06T05:25:01.081Z,684
2017-06-06T05:25:41.700Z,696
2017-06-06T05:26:23.283Z,704
2017-06-06T05:27:03.840Z,696
2017-06-06T05:27:45.403Z,696
2017-06-06T05:28:25.966Z,680
2017-06-06T05:29:06.514Z,664
2017-06-06T05:29:47.177Z,648
2017-06-06T05:30:27.760Z,640
2017-06-06T05:31:08.299Z,636
2017-06-06T05:31:48.878Z,632
2017-06-06T05:32:29.492Z,624
2017-06-06T05:33:10.192Z,612
2017-06-06T05:33:50.713Z,600
2017-06-06T05:34:31.309Z,592
2017-06-06T05:35:11.890Z,584
2017-06-06T05:35:52.570Z,588
2017-06-06T05:36:33.054Z,596
2017-06-06T05:37:14.475Z,604
2017-06-06T05:37:55.057Z,616
2017-06-06T05:38:35.594Z,620
2017-06-06T05:39:16.176Z,628
2017-06-06T05:39:56.753Z,640
2017-06-06T05:40:38.380Z,644
2017-06-06T05:41:19.032Z,652
2017-06-06T05:42:00.713Z,656
2017-06-06T05:42:41.253Z,684
2017-06-06T05:43:21.799Z,720
2017-06-06T05:44:02.351Z,768
2017-06-06T05:44:42.928Z,788
2017-06-06T05:45:23.566Z,772
2017-06-06T05:46:04.117Z,744
2017-06-06T05:46:44.655Z,740
2017-06-06T05:47:25.230Z,760
2017-06-06T05:48:05.862Z,776
2017-06-06T05:48:46.513Z,756
2017-06-06T05:49:27.083Z,720
2017-06-06T05:50:07.640Z,712
2017-06-06T05:50:48.312Z,736
2017-06-06T05:51:28.880Z,776
2017-06-06T05:52:09.482Z,808
2017-06-06T05:52:50.037Z,820
2017-06-06T05:53:30.608Z,804
2017-06-06T05:54:11.251Z,804
2017-06-06T05:54:51.823Z,800
2017-06-06T05:55:32.326Z,812
2017-06-06T05:56:12.961Z,812
2017-06-06T05:56:53.532Z,820
2017-06-06T05:57:34.057Z,828
2017-06-06T05:58:15.724Z,832
2017-06-06T05:58:56.324Z,836
2017-06-06T05:59:36.847Z,836
2017-06-06T06:00:17.485Z,848
2017-06-06T06:00:59.153Z,860
2017-06-06T06:01:39.697Z,876
2017-06-06T06:02:20.248Z,888
2017-06-06T06:03:00.756Z,896
2017-06-06T06:03:41.320Z,908
2017-06-06T06:04:21.860Z,912
2017-06-06T06:05:03.442Z,912
2017-06-06T06:05:44.015Z,912
2017-06-06T06:06:24.641Z,904
2017-06-06T06:07:05.201Z,896
2017-06-06T06:07:45.846Z,896
2017-06-06T06:08:26.386Z,896
2017-06-06T06:09:06.977Z,892
2017-06-06T06:09:47.652Z,876
2017-06-06T06:10:28.382Z,860
2017-06-06T06:11:09.003Z,864
2017-06-06T06:11:49.664Z,888
2017-06-06T06:12:30.311Z,916
2017-06-06T06:13:10.843Z,952
2017-06-06T06:13:51.402Z,956
2017-06-06T06:14:31.956Z,960
2017-06-06T06:15:12.611Z,948
2017-06-06T06:15:53.165Z,956
2017-06-06T06:16:33.801Z,964
2017-06-06T06:17:14.359Z,964
2017-06-06T06:17:54.915Z,960
2017-06-06T06:18:35.558Z,960
2017-06-06T06:19:17.139Z,1000
2017-06-06T06:19:57.692Z,1048
2017-06-06T06:20:38.233Z,1104
2017-06-06T06:21:18.781Z,1144
2017-06-06T06:21:59.361Z,1136
2017-06-06T06:22:39.892Z,1084
2017-06-06T06:23:20.442Z,980
2017-06-06T06:24:01.090Z,908
2017-06-06T06:24:42.667Z,856
2017-06-06T06:25:23.186Z,808
2017-06-06T06:26:03.837Z,784
2017-06-06T06:26:44.429Z,748
2017-06-06T06:27:24.997Z,740
2017-06-06T06:28:05.583Z,728
2017-06-06T06:28:47.109Z,720
2017-06-06T06:29:27.615Z,712
2017-06-06T06:30:08.246Z,708
2017-06-06T06:30:49.881Z,696
2017-06-06T06:31:30.459Z,676
2017-06-06T06:32:11.131Z,688
2017-06-06T06:32:51.683Z,696
2017-06-06T06:33:32.299Z,688
2017-06-06T06:34:12.805Z,684
2017-06-06T06:34:53.426Z,688
2017-06-06T06:35:33.994Z,692
2017-06-06T06:36:14.581Z,696
2017-06-06T06:36:55.238Z,688
2017-06-06T06:37:35.789Z,688
2017-06-06T06:38:17.365Z,696
2017-06-06T06:38:58.159Z,708
2017-06-06T06:39:38.770Z,728
2017-06-06T06:40:19.319Z,748
2017-06-06T06:40:59.968Z,736
2017-06-06T06:41:40.522Z,724
2017-06-06T06:42:21.078Z,732
2017-06-06T06:43:01.723Z,716
2017-06-06T06:43:42.375Z,704
2017-06-06T06:44:22.933Z,692
2017-06-06T06:45:03.549Z,696
2017-06-06T06:45:44.071Z,756
2017-06-06T06:46:24.698Z,776
2017-06-06T06:47:05.222Z,704
2017-06-06T06:47:45.833Z,600
2017-06-06T06:48:26.446Z,536
2017-06-06T06:49:06.970Z,556
2017-06-06T06:49:47.627Z,612
2017-06-06T06:50:28.195Z,656
2017-06-06T06:51:08.739Z,684
2017-06-06T06:51:49.389Z,680
2017-06-06T06:52:30.040Z,668
2017-06-06T06:53:10.598Z,656
2017-06-06T06:53:51.117Z,660
2017-06-06T06:54:31.743Z,684
2017-06-06T06:55:12.331Z,744
2017-06-06T06:55:52.907Z,804
2017-06-06T06:56:33.452Z,848
2017-06-06T06:57:14.982Z,840
2017-06-06T06:57:56.600Z,800
2017-06-06T06:58:37.153Z,772
2017-06-06T06:59:17.684Z,768
2017-06-06T06:59:58.260Z,772
2017-06-06T07:00:38.930Z,792
2017-06-06T07:01:19.455Z,840
2017-06-06T07:02:00.011Z,872
2017-06-06T07:02:40.566Z,896
2017-06-06T07:03:21.227Z,896
2017-06-06T07:04:02.184Z,908
2017-06-06T07:04:42.826Z,944
2017-06-06T07:05:23.474Z,964
2017-06-06T07:06:05.059Z,948
2017-06-06T07:06:45.721Z,920
2017-06-06T07:07:26.361Z,920
2017-06-06T07:08:06.912Z,944
2017-06-06T07:08:47.474Z,936
2017-06-06T07:09:28.004Z,908
2017-06-06T07:10:08.594Z,884
2017-06-06T07:10:49.327Z,864
2017-06-06T07:11:31.001Z,808
2017-06-06T07:12:11.636Z,736
2017-06-06T07:12:54.318Z,676
2017-06-06T07:13:34.937Z,640
2017-06-06T07:14:15.580Z,592
2017-06-06T07:14:56.150Z,552
2017-06-06T07:15:37.844Z,524
2017-06-06T07:16:18.429Z,496
2017-06-06T07:16:59.170Z,540
2017-06-06T07:17:39.890Z,608
2017-06-06T07:18:20.545Z,632
2017-06-06T07:19:01.271Z,640
2017-06-06T07:19:41.861Z,644
2017-06-06T07:20:22.470Z,668
2017-06-06T07:21:04.146Z,716
2017-06-06T07:21:44.807Z,776
2017-06-06T07:22:25.435Z,812
2017-06-06T07:23:06.065Z,876
2017-06-06T07:23:46.714Z,956
2017-06-06T07:24:27.272Z,992
2017-06-06T07:25:07.978Z,992
2017-06-06T07:25:48.734Z,988
2017-06-06T07:26:29.498Z,1004
2017-06-06T07:27:10.132Z,1020
2017-06-06T07:27:50.786Z,1032
2017-06-06T07:28:31.463Z,1044
2017-06-06T07:29:13.156Z,1052
2017-06-06T07:29:53.760Z,1052
2017-06-06T07:30:34.401Z,1032
2017-06-06T07:31:15.083Z,1024
2017-06-06T07:31:55.814Z,1020
2017-06-06T07:32:36.524Z,1060
2017-06-06T07:33:17.130Z,1096
2017-06-06T07:33:57.744Z,1084
2017-06-06T07:34:39.363Z,1024
2017-06-06T07:35:20.040Z,968
2017-06-06T07:36:00.636Z,948
2017-06-06T07:36:42.342Z,972
2017-06-06T07:37:22.916Z,1020
2017-06-06T07:38:03.549Z,1096
2017-06-06T07:38:44.237Z,1156
2017-06-06T07:39:24.925Z,1192
2017-06-06T07:40:07.625Z,1216
2017-06-06T07:40:49.267Z,1204
2017-06-06T07:41:30.025Z,1156
2017-06-06T07:42:10.642Z,1112
2017-06-06T07:42:51.314Z,1124
2017-06-06T07:43:31.960Z,1176
2017-06-06T07:44:12.587Z,1196
2017-06-06T07:44:53.237Z,1188
2017-06-06T07:45:33.786Z,1164
2017-06-06T07:46:14.353Z,1132
2017-06-06T07:46:54.925Z,1092
2017-06-06T07:47:35.542Z,960
2017-06-06T07:48:16.139Z,840
2017-06-06T07:48:56.722Z,904
2017-06-06T07:49:37.382Z,876
2017-06-06T07:50:17.990Z,792
2017-06-06T07:50:58.531Z,868
2017-06-06T07:51:39.105Z,956
2017-06-06T07:52:19.742Z,972
2017-06-06T07:53:00.262Z,1068
2017-06-06T07:53:40.886Z,1080
2017-06-06T07:54:21.570Z,1076
2017-06-06T07:55:02.097Z,1112
2017-06-06T07:55:42.764Z,1092
2017-06-06T07:56:23.403Z,1092
2017-06-06T07:57:04.077Z,1080
2017-06-06T07:57:44.744Z,1024
2017-06-06T07:58:26.362Z,1024
2017-06-06T07:59:07.001Z,964
2017-06-06T07:59:47.556Z,952
2017-06-06T08:00:28.104Z,1056
2017-06-06T08:01:08.659Z,1092
2017-06-06T08:01:49.220Z,1048
2017-06-06T08:02:29.868Z,1052
2017-06-06T08:03:10.421Z,1044
2017-06-06T08:03:50.971Z,1048
2017-06-06T08:04:31.689Z,1060
2017-06-06T08:05:12.272Z,1076
2017-06-06T08:05:52.895Z,1056
2017-06-06T08:06:33.449Z,1120
2017-06-06T08:07:14.105Z,1176
2017-06-06T08:07:54.686Z,1064
2017-06-06T08:08:35.247Z,1100
2017-06-06T08:09:15.772Z,1120
2017-06-06T08:09:56.349Z,1120
2017-06-06T08:10:37.048Z,1092
2017-06-06T08:11:17.688Z,1076
2017-06-06T08:11:58.212Z,1036
2017-06-06T08:12:38.760Z,820
2017-06-06T08:13:19.381Z,976
2017-06-06T08:14:00.963Z,876
2017-06-06T08:14:41.490Z,748
2017-06-06T08:15:22.078Z,876
2017-06-06T08:16:02.837Z,656
2017-06-06T08:16:43.394Z,492
2017-06-06T08:17:23.935Z,456
2017-06-06T08:18:04.509Z,868
2017-06-06T08:18:45.077Z,712
2017-06-06T08:19:25.675Z,388
2017-06-06T08:20:06.213Z,508
2017-06-06T08:20:46.794Z,580
2017-06-06T08:21:27.436Z,656
2017-06-06T08:22:07.980Z,524
2017-06-06T08:22:48.512Z,480
2017-06-06T08:23:29.104Z,384
2017-06-06T08:24:09.694Z,508
2017-06-06T08:24:50.399Z,632
2017-06-06T08:25:30.915Z,544
2017-06-06T08:26:11.502Z,640
2017-06-06T08:26:53.122Z,436
2017-06-06T08:27:33.741Z,620
2017-06-06T08:28:14.252Z,844
2017-06-06T08:28:54.859Z,960
2017-06-06T08:29:35.462Z,996
2017-06-06T08:30:16.131Z,956
2017-06-06T08:30:56.685Z,848
2017-06-06T08:31:38.233Z,844
2017-06-06T08:32:18.808Z,664
2017-06-06T08:32:59.366Z,764
2017-06-06T08:33:39.902Z,880
2017-06-06T08:34:20.566Z,808
2017-06-06T08:35:01.118Z,780
2017-06-06T08:35:41.660Z,780
2017-06-06T08:36:22.316Z,820
2017-06-06T08:37:02.831Z,704
2017-06-06T08:37:43.374Z,664
2017-06-06T08:38:23.924Z,640
2017-06-06T08:39:05.211Z,664
2017-06-06T08:39:45.733Z,604
2017-06-06T08:40:26.303Z,576
2017-06-06T08:41:06.851Z,548
2017-06-06T08:41:47.376Z,528
2017-06-06T08:42:27.964Z,532
2017-06-06T08:43:09.481Z,552
2017-06-06T08:43:50.014Z,572
2017-06-06T08:44:30.531Z,568
2017-06-06T08:45:11.073Z,564
2017-06-06T08:45:52.760Z,596
2017-06-06T08:46:33.300Z,648
2017-06-06T08:47:15.838Z,608
2017-06-06T08:47:56.461Z,508
2017-06-06T08:48:37.018Z,416
2017-06-06T08:49:17.714Z,520
2017-06-06T08:49:58.353Z,524
2017-06-06T08:50:38.876Z,580
2017-06-06T08:51:19.406Z,416
2017-06-06T08:51:59.967Z,428
2017-06-06T08:52:40.555Z,400
2017-06-06T08:53:21.173Z,484
2017-06-06T08:54:01.725Z,644
2017-06-06T08:54:42.275Z,676
2017-06-06T08:55:22.849Z,596
2017-06-06T08:56:04.405Z,600
2017-06-06T08:56:44.947Z,524
2017-06-06T08:57:25.480Z,500
2017-06-06T08:58:06.031Z,532
2017-06-06T08:58:47.068Z,672
2017-06-06T08:59:27.693Z,688
2017-06-06T09:00:08.415Z,632
2017-06-06T09:00:49.241Z,768
2017-06-06T09:01:29.861Z,684
2017-06-06T09:02:10.512Z,740
2017-06-06T09:02:51.087Z,660
2017-06-06T09:03:31.640Z,596
2017-06-06T09:04:12.222Z,568
2017-06-06T09:04:52.823Z,540
2017-06-06T09:05:33.343Z,496
2017-06-06T09:06:14.016Z,512
2017-06-06T09:06:54.674Z,460
2017-06-06T09:07:36.024Z,412
2017-06-06T09:08:16.655Z,440
2017-06-06T09:08:57.178Z,452
2017-06-06T09:09:37.706Z,484
2017-06-06T09:10:18.240Z,504
2017-06-06T09:10:59.774Z,488
2017-06-06T09:11:40.302Z,492
2017-06-06T09:12:20.928Z,524
2017-06-06T09:13:01.586Z,520
2017-06-06T09:13:43.152Z,528
2017-06-06T09:14:23.680Z,492
2017-06-06T09:15:04.222Z,528
2017-06-06T09:15:44.775Z,624
2017-06-06T09:16:26.438Z,588
2017-06-06T09:17:06.972Z,620
2017-06-06T09:17:47.596Z,704
2017-06-06T09:18:28.225Z,740
2017-06-06T09:19:08.774Z,744
2017-06-06T09:19:49.291Z,748
2017-06-06T09:20:29.842Z,828
2017-06-06T09:21:10.474Z,980
2017-06-06T09:21:55.598Z,1072
2017-06-06T09:22:36.218Z,1052
2017-06-06T09:23:16.737Z,1040
2017-06-06T09:23:57.278Z,1016
2017-06-06T09:24:37.834Z,1040
2017-06-06T09:25:18.361Z,980
2017-06-06T09:25:58.897Z,808
2017-06-06T09:26:39.426Z,700
2017-06-06T09:27:21.005Z,836
2017-06-06T09:28:01.498Z,900
2017-06-06T09:28:43.036Z,936
2017-06-06T09:29:23.577Z,808
2017-06-06T09:30:04.171Z,736
2017-06-06T09:30:44.858Z,716
2017-06-06T09:31:25.426Z,588
2017-06-06T09:32:06.025Z,672
2017-06-06T09:32:46.573Z,708
2017-06-06T09:33:29.204Z,900